Helena, Montana
Current Conditions -  °F | °C
As of 10:53 PM on Friday 28 Nov 2014 (Local Time) from KHLN Reporting Station
Scattered Clouds Scattered Clouds  
Wind Chill: 22°   Ceiling: Unl
Heat Index: 28°   Visibility: 10mi
Dew Point: 20°   Wind: 6mph
Humidity: 72%   Direction: 60°ENE
Pressure: 29.39"   Gusts: NA
Location:  46.59°N, 112.02°W
Report Text: KHLN 290553Z AUTO 06005KT 10SM SCT065 M02/M07 A2939 RMK AO2 SLP981 T10221067 10117 21022 53000
Loading
Personal Weather Stations






























Interactive Weather Map New forecast layout! Learn more

10-Day Weather Forecast

Advertisements
Track Severe Weather on mobile